createdAt,value
2018-03-26T00:00:46.941Z,99914.64
2018-03-26T00:01:53.129Z,99914.55
2018-03-26T00:02:59.340Z,99911.50
2018-03-26T00:04:05.245Z,99913.23
2018-03-26T00:05:11.670Z,99914.38
2018-03-26T00:06:17.885Z,99913.88
2018-03-26T00:07:24.083Z,99914.38
2018-03-26T00:08:30.422Z,99916.06
2018-03-26T00:09:36.799Z,99912.86
2018-03-26T00:10:43.035Z,99906.81
2018-03-26T00:11:50.783Z,99917.45
2018-03-26T00:12:56.987Z,99919.43
2018-03-26T00:14:03.585Z,99912.21
2018-03-26T00:15:09.788Z,99914.84
2018-03-26T00:16:16.045Z,99915.64
2018-03-26T00:17:22.286Z,99917.25
2018-03-26T00:18:28.499Z,99918.02
2018-03-26T00:19:34.689Z,99916.19
2018-03-26T00:20:42.062Z,99921.91
2018-03-26T00:21:48.293Z,99916.80
2018-03-26T00:22:54.742Z,99914.76
2018-03-26T00:24:05.746Z,99913.09
2018-03-26T00:25:11.986Z,99915.66
2018-03-26T00:26:18.341Z,99914.33
2018-03-26T00:27:24.808Z,99908.91
2018-03-26T00:28:31.032Z,99914.82
2018-03-26T00:29:36.946Z,99914.66
2018-03-26T00:30:43.063Z,99920.37
2018-03-26T00:31:49.275Z,99913.09
2018-03-26T00:32:55.252Z,99913.96
2018-03-26T00:34:01.476Z,99918.19
2018-03-26T00:35:07.992Z,99910.42
2018-03-26T00:36:14.298Z,99915.45
2018-03-26T00:37:20.693Z,99914.59
2018-03-26T00:38:26.878Z,99918.48
2018-03-26T00:39:36.293Z,99916.38
2018-03-26T00:40:42.764Z,99913.30
2018-03-26T00:41:48.994Z,99917.81
2018-03-26T00:42:55.242Z,99915.45
2018-03-26T00:44:04.480Z,99917.45
2018-03-26T00:45:10.791Z,99914.03
2018-03-26T00:46:17.079Z,99915.27
2018-03-26T00:47:23.237Z,99915.20
2018-03-26T00:48:29.443Z,99917.25
2018-03-26T00:49:35.729Z,99916.63
2018-03-26T00:50:42.267Z,99916.51
2018-03-26T00:51:54.444Z,99908.80
2018-03-26T00:53:01.493Z,99912.62
2018-03-26T00:54:07.641Z,99919.14
2018-03-26T00:55:14.742Z,99914.08
2018-03-26T00:56:21.782Z,99913.96
2018-03-26T00:57:28.209Z,99917.16
2018-03-26T00:58:34.685Z,99919.00
2018-03-26T00:59:40.862Z,99919.36
2018-03-26T01:00:47.099Z,99921.95
2018-03-26T01:01:52.984Z,99922.63
2018-03-26T01:02:59.007Z,99922.31
2018-03-26T01:04:04.927Z,99922.35
2018-03-26T01:05:14.788Z,99915.61
2018-03-26T01:06:22.924Z,99919.20
2018-03-26T01:07:29.278Z,99915.63
2018-03-26T01:08:35.447Z,99924.09
2018-03-26T01:09:41.636Z,99917.61
2018-03-26T01:10:47.884Z,99922.65
2018-03-26T01:11:54.157Z,99922.15
2018-03-26T01:13:00.585Z,99921.80
2018-03-26T01:14:06.726Z,99917.92
2018-03-26T01:15:12.577Z,99924.63
2018-03-26T01:16:18.809Z,99920.72
2018-03-26T01:17:25.551Z,99922.67
2018-03-26T01:18:31.945Z,99927.36
2018-03-26T01:19:38.404Z,99922.24
2018-03-26T01:20:44.561Z,99927.87
2018-03-26T01:21:50.812Z,99929.62
2018-03-26T01:22:57.034Z,99930.81
2018-03-26T01:24:03.268Z,99933.28
2018-03-26T01:25:09.454Z,99927.98
2018-03-26T01:26:15.738Z,99927.12
2018-03-26T01:27:22.026Z,99929.97
2018-03-26T01:28:28.228Z,99930.73
2018-03-26T01:29:34.692Z,99935.24
2018-03-26T01:30:40.909Z,99932.78
2018-03-26T01:31:47.144Z,99929.32
2018-03-26T01:32:53.314Z,99930.76
2018-03-26T01:33:59.510Z,99928.11
2018-03-26T01:35:05.592Z,99934.11
2018-03-26T01:36:12.012Z,99934.45
2018-03-26T01:37:18.243Z,99931.81
2018-03-26T01:38:24.490Z,99938.98
2018-03-26T01:39:30.717Z,99935.12
2018-03-26T01:40:37.248Z,99936.62
2018-03-26T01:41:43.556Z,99940.72
2018-03-26T01:42:49.883Z,99940.33
2018-03-26T01:43:55.784Z,99939.47
2018-03-26T01:45:02.005Z,99940.55
2018-03-26T01:46:08.258Z,99940.64
2018-03-26T01:47:14.521Z,99946.86
2018-03-26T01:48:21.139Z,99948.18
2018-03-26T01:49:27.384Z,99941.88
2018-03-26T01:50:33.400Z,99941.72
2018-03-26T01:51:39.917Z,99944.85
2018-03-26T01:52:50.808Z,99945.52
2018-03-26T01:53:57.052Z,99949.08
2018-03-26T01:55:03.288Z,99943.25
2018-03-26T01:56:09.543Z,99946.63
2018-03-26T01:57:15.697Z,99941.70
2018-03-26T01:58:21.876Z,99946.42
2018-03-26T01:59:28.803Z,99945.99
2018-03-26T02:00:35.882Z,99943.94
2018-03-26T02:01:41.723Z,99943.75
2018-03-26T02:02:48.045Z,99940.73
2018-03-26T02:03:54.228Z,99943.44
2018-03-26T02:05:00.386Z,99942.30
2018-03-26T02:06:06.636Z,99945.00
2018-03-26T02:07:12.893Z,99951.61
2018-03-26T02:08:18.802Z,99943.06
2018-03-26T02:09:30.213Z,99948.34
2018-03-26T02:10:36.181Z,99944.48
2018-03-26T02:11:46.338Z,99944.53
2018-03-26T02:12:53.107Z,99937.41
2018-03-26T02:13:59.388Z,99941.86
2018-03-26T02:15:05.568Z,99937.03
2018-03-26T02:16:11.805Z,99937.48
2018-03-26T02:17:17.996Z,99937.41
2018-03-26T02:18:24.247Z,99940.14
2018-03-26T02:19:30.521Z,99935.86
2018-03-26T02:20:36.803Z,99940.68
2018-03-26T02:21:42.982Z,99936.73
2018-03-26T02:22:49.183Z,99939.39
2018-03-26T02:23:55.393Z,99939.83
2018-03-26T02:25:01.592Z,99940.87
2018-03-26T02:26:09.121Z,99942.48
2018-03-26T02:27:15.396Z,99939.89
2018-03-26T02:28:21.625Z,99946.95
2018-03-26T02:29:27.815Z,99936.11
2018-03-26T02:30:34.088Z,99947.19
2018-03-26T02:31:40.342Z,99950.06
2018-03-26T02:32:46.564Z,99949.58
2018-03-26T02:33:52.773Z,99953.27
2018-03-26T02:34:58.939Z,99949.27
2018-03-26T02:36:04.804Z,99951.45
2018-03-26T02:37:10.379Z,99949.27
2018-03-26T02:38:19.421Z,99948.42
2018-03-26T02:39:25.645Z,99953.95
2018-03-26T02:40:31.998Z,99956.34
2018-03-26T02:41:39.981Z,99958.48
2018-03-26T02:42:49.833Z,99949.75
2018-03-26T02:43:56.034Z,99945.89
2018-03-26T02:45:02.101Z,99949.93
2018-03-26T02:46:08.320Z,99950.88
2018-03-26T02:47:14.538Z,99954.29
2018-03-26T02:48:20.733Z,99951.36
2018-03-26T02:49:26.946Z,99953.58
2018-03-26T02:50:36.016Z,99951.77
2018-03-26T02:51:42.269Z,99957.50
2018-03-26T02:52:48.471Z,99954.68
2018-03-26T02:53:54.733Z,99958.18
2018-03-26T02:55:00.948Z,99953.41
2018-03-26T02:56:07.094Z,99956.34
2018-03-26T02:57:13.213Z,99960.64
2018-03-26T02:58:19.441Z,99958.05
2018-03-26T02:59:25.740Z,99958.27
2018-03-26T03:00:32.131Z,99958.03
2018-03-26T03:01:46.623Z,99956.18
2018-03-26T03:04:10.095Z,99959.66
2018-03-26T03:05:16.469Z,99956.75
2018-03-26T03:06:22.721Z,99950.30
2018-03-26T03:07:28.924Z,99949.91
2018-03-26T03:08:35.149Z,99948.55
2018-03-26T03:09:43.330Z,99953.72
2018-03-26T03:10:49.540Z,99958.48
2018-03-26T03:11:55.396Z,99960.54
2018-03-26T03:13:01.606Z,99956.54
2018-03-26T03:14:15.329Z,99955.71
2018-03-26T03:15:21.541Z,99958.00
2018-03-26T03:16:30.816Z,99952.66
2018-03-26T03:17:36.708Z,99956.02
2018-03-26T03:18:42.671Z,99960.04
2018-03-26T03:19:49.035Z,99965.25
2018-03-26T03:20:55.396Z,99968.54
2018-03-26T03:22:01.635Z,99974.41
2018-03-26T03:23:13.150Z,99976.86
2018-03-26T03:24:19.292Z,99983.10
2018-03-26T03:25:25.478Z,99977.20
2018-03-26T03:26:31.657Z,99976.72
2018-03-26T03:27:38.685Z,99978.33
2018-03-26T03:28:44.980Z,99979.16
2018-03-26T03:29:51.327Z,99979.69
2018-03-26T03:30:57.599Z,99984.61
2018-03-26T03:32:03.580Z,99977.95
2018-03-26T03:33:10.372Z,99977.63
2018-03-26T03:34:16.648Z,99979.70
2018-03-26T03:35:28.296Z,99983.61
2018-03-26T03:36:36.415Z,99979.70
2018-03-26T03:37:42.779Z,99984.13
2018-03-26T03:38:48.973Z,99984.38
2018-03-26T03:39:54.924Z,99985.36
2018-03-26T03:41:01.258Z,99982.38
2018-03-26T03:42:07.424Z,99984.25
2018-03-26T03:43:13.628Z,99984.78
2018-03-26T03:44:19.879Z,99982.30
2018-03-26T03:45:29.205Z,99987.02
2018-03-26T03:46:37.406Z,99993.48
2018-03-26T03:47:43.666Z,99989.69
2018-03-26T03:48:49.891Z,99994.23
2018-03-26T03:49:56.093Z,99995.46
2018-03-26T03:51:02.284Z,99995.56
2018-03-26T03:52:08.523Z,99994.66
2018-03-26T03:53:14.752Z,99992.10
2018-03-26T03:54:20.754Z,99999.03
2018-03-26T03:55:28.932Z,99999.05
2018-03-26T03:56:35.168Z,100004.31
2018-03-26T03:57:41.304Z,100000.88
2018-03-26T03:58:52.124Z,100004.34
2018-03-26T03:59:58.342Z,99996.85
2018-03-26T04:01:04.657Z,100001.50
2018-03-26T04:02:11.205Z,100001.00
2018-03-26T04:03:18.040Z,100007.14
2018-03-26T04:04:24.290Z,100002.39
2018-03-26T04:05:30.579Z,100005.44
2018-03-26T04:06:36.794Z,100005.22
2018-03-26T04:07:43.117Z,100001.98
2018-03-26T04:08:49.353Z,100006.95
2018-03-26T04:10:00.738Z,100002.62
2018-03-26T04:11:07.085Z,100006.52
2018-03-26T04:12:19.042Z,100011.72
2018-03-26T04:13:29.210Z,100010.73
2018-03-26T04:14:35.461Z,100014.88
2018-03-26T04:15:42.347Z,100008.23
2018-03-26T04:16:55.220Z,100012.06
2018-03-26T04:18:01.441Z,100012.48
2018-03-26T04:19:07.730Z,100009.80
2018-03-26T04:20:13.797Z,100006.27
2018-03-26T04:21:20.153Z,100009.23
2018-03-26T04:22:26.074Z,100012.93
2018-03-26T04:23:32.358Z,100013.91
2018-03-26T04:24:38.602Z,100013.91
2018-03-26T04:25:44.862Z,100013.00
2018-03-26T04:26:54.248Z,100012.52
2018-03-26T04:28:00.478Z,100011.72
2018-03-26T04:29:06.792Z,100010.11
2018-03-26T04:30:13.017Z,100011.73
2018-03-26T04:31:19.459Z,100014.47
2018-03-26T04:32:31.679Z,100018.28
2018-03-26T04:33:37.983Z,100011.73
2018-03-26T04:34:44.171Z,100018.78
2018-03-26T04:35:50.427Z,100018.25
2018-03-26T04:36:56.680Z,100013.76
2018-03-26T04:38:02.861Z,100012.14
2018-03-26T04:39:08.395Z,100012.20
2018-03-26T04:40:19.020Z,100015.51
2018-03-26T04:41:25.267Z,100012.41
2018-03-26T04:42:31.552Z,100015.77
2018-03-26T04:43:37.720Z,100016.16
2018-03-26T04:44:43.931Z,100012.17
2018-03-26T04:45:50.218Z,100018.87
2018-03-26T04:46:56.523Z,100022.41
2018-03-26T04:48:02.782Z,100016.44
2018-03-26T04:49:11.894Z,100023.02
2018-03-26T04:50:19.230Z,100023.70
2018-03-26T04:51:25.494Z,100019.20
2018-03-26T04:52:36.902Z,100024.88
2018-03-26T04:53:45.135Z,100025.88
2018-03-26T04:54:56.313Z,100028.03
2018-03-26T04:56:03.472Z,100026.20
2018-03-26T04:57:09.861Z,100024.03
2018-03-26T04:58:16.096Z,100030.67
2018-03-26T04:59:22.385Z,100029.95
2018-03-26T05:00:31.682Z,100029.45
2018-03-26T05:01:38.019Z,100030.33
2018-03-26T05:02:44.186Z,100034.19
2018-03-26T05:03:50.408Z,100037.77
2018-03-26T05:04:57.319Z,100036.16
2018-03-26T05:06:04.114Z,100033.75
2018-03-26T05:07:13.226Z,100034.64
2018-03-26T05:08:19.393Z,100033.67
2018-03-26T05:09:30.166Z,100032.41
2018-03-26T05:10:38.004Z,100035.52
2018-03-26T05:11:44.212Z,100036.81
2018-03-26T05:12:51.277Z,100040.37
2018-03-26T05:13:57.495Z,100030.00
2018-03-26T05:15:03.718Z,100032.69
2018-03-26T05:16:09.938Z,100031.91
2018-03-26T05:17:16.044Z,100034.91
2018-03-26T05:18:22.348Z,100036.50
2018-03-26T05:19:28.519Z,100028.58
2018-03-26T05:20:34.911Z,100041.63
2018-03-26T05:21:41.192Z,100033.80
2018-03-26T05:22:51.920Z,100033.87
2018-03-26T05:23:59.150Z,100033.37
2018-03-26T05:25:04.635Z,100030.22
2018-03-26T05:26:10.866Z,100032.78
2018-03-26T05:27:17.067Z,100031.84
2018-03-26T05:28:26.146Z,100035.50
2018-03-26T05:29:32.394Z,100031.84
2018-03-26T05:30:38.594Z,100037.98
2018-03-26T05:31:44.968Z,100037.06
2018-03-26T05:32:51.274Z,100041.61
2018-03-26T05:33:57.462Z,100043.34
2018-03-26T05:35:08.413Z,100037.98
2018-03-26T05:36:14.547Z,100045.41
2018-03-26T05:37:24.197Z,100045.03
2018-03-26T05:38:30.681Z,100044.75
2018-03-26T05:39:36.884Z,100046.94
2018-03-26T05:40:45.973Z,100050.05
2018-03-26T05:41:51.958Z,100053.95
2018-03-26T05:42:58.209Z,100052.86
2018-03-26T05:44:04.385Z,100055.05
2018-03-26T05:45:10.331Z,100047.98
2018-03-26T05:46:16.607Z,100050.08
2018-03-26T05:47:22.829Z,100051.55
2018-03-26T05:48:31.116Z,100061.81
2018-03-26T05:49:37.104Z,100056.54
2018-03-26T05:50:48.509Z,100063.10
2018-03-26T05:51:55.684Z,100065.03
2018-03-26T05:53:02.075Z,100064.35
2018-03-26T05:54:07.924Z,100062.98
2018-03-26T05:55:14.108Z,100065.11
2018-03-26T05:56:23.087Z,100063.81
2018-03-26T05:57:29.301Z,100068.75
2018-03-26T05:58:35.493Z,100067.80
2018-03-26T05:59:41.745Z,100068.11
2018-03-26T06:00:47.921Z,100065.38
2018-03-26T06:01:54.103Z,100069.25
2018-03-26T06:03:04.854Z,100072.55
2018-03-26T06:04:11.031Z,100076.33
2018-03-26T06:05:18.469Z,100072.00
2018-03-26T06:06:24.745Z,100073.73
2018-03-26T06:07:31.053Z,100079.92
2018-03-26T06:08:37.745Z,100078.16
2018-03-26T06:09:43.970Z,100079.91
2018-03-26T06:10:50.185Z,100084.61
2018-03-26T06:11:57.396Z,100073.72
2018-03-26T06:13:15.302Z,100077.98
2018-03-26T06:14:24.316Z,100080.25
2018-03-26T06:15:30.727Z,100090.16
2018-03-26T06:16:45.127Z,100092.44
2018-03-26T06:17:50.885Z,100089.94
2018-03-26T06:18:57.058Z,100091.48
2018-03-26T06:20:04.572Z,100094.57
2018-03-26T06:21:10.671Z,100092.06
2018-03-26T06:22:16.777Z,100093.71
2018-03-26T06:23:22.830Z,100099.78
2018-03-26T06:24:33.964Z,100098.19
2018-03-26T06:25:39.980Z,100095.22
2018-03-26T06:26:46.024Z,100095.67
2018-03-26T06:27:52.128Z,100096.41
2018-03-26T06:28:58.140Z,100095.86
2018-03-26T06:30:06.765Z,100092.63
2018-03-26T06:31:12.783Z,100089.80
2018-03-26T06:32:21.404Z,100096.78
2018-03-26T06:33:29.055Z,100094.70
2018-03-26T06:34:37.612Z,100094.77
2018-03-26T06:35:43.661Z,100091.36
2018-03-26T06:38:39.387Z,100093.36
2018-03-26T06:39:45.560Z,100097.33
2018-03-26T06:40:51.516Z,100094.36
2018-03-26T06:41:57.685Z,100098.05
2018-03-26T06:43:03.888Z,100104.67
2018-03-26T06:44:11.741Z,100095.42
2018-03-26T06:45:18.129Z,100102.20
2018-03-26T06:46:27.218Z,100104.48
2018-03-26T06:47:33.691Z,100103.67
2018-03-26T06:48:40.980Z,100105.86
2018-03-26T06:49:47.193Z,100104.34
2018-03-26T06:50:53.617Z,100105.44
2018-03-26T06:51:59.802Z,100107.70
2018-03-26T06:53:06.089Z,100108.14
2018-03-26T06:54:20.664Z,100108.83
2018-03-26T06:55:35.110Z,100112.52
2018-03-26T06:56:41.319Z,100110.43
2018-03-26T06:57:47.518Z,100111.30
2018-03-26T06:58:53.743Z,100116.83
2018-03-26T06:59:59.980Z,100118.44
2018-03-26T07:01:11.754Z,100124.52
2018-03-26T07:02:17.982Z,100116.70
2018-03-26T07:03:24.446Z,100121.91
2018-03-26T07:04:30.773Z,100118.80
2018-03-26T07:05:36.996Z,100114.41
2018-03-26T07:06:43.229Z,100117.05
2018-03-26T07:07:49.485Z,100119.46
2018-03-26T07:08:55.707Z,100125.37
2018-03-26T07:10:01.880Z,100122.48
2018-03-26T07:11:08.101Z,100119.53
2018-03-26T07:12:14.322Z,100127.89
2018-03-26T07:13:21.857Z,100121.03
2018-03-26T07:14:28.859Z,100121.38
2018-03-26T07:15:39.979Z,100126.29
2018-03-26T07:16:46.302Z,100125.83
2018-03-26T07:17:52.500Z,100127.34
2018-03-26T07:18:58.736Z,100127.34
2018-03-26T07:20:04.731Z,100123.97
2018-03-26T07:21:10.945Z,100124.00
2018-03-26T07:22:17.159Z,100120.46
2018-03-26T07:23:23.855Z,100127.30
2018-03-26T07:24:30.029Z,100127.92
2018-03-26T07:25:44.730Z,100127.45
2018-03-26T07:26:50.931Z,100132.24
2018-03-26T07:27:57.149Z,100132.24
2018-03-26T07:29:09.252Z,100124.33
2018-03-26T07:30:17.387Z,100131.34
2018-03-26T07:31:23.514Z,100134.62
2018-03-26T07:32:29.781Z,100133.91
2018-03-26T07:33:35.940Z,100137.67
2018-03-26T07:34:42.234Z,100137.30
2018-03-26T07:35:48.392Z,100136.55
2018-03-26T07:36:54.275Z,100145.02
2018-03-26T07:38:00.872Z,100138.64
2018-03-26T07:39:07.198Z,100140.38
2018-03-26T07:40:13.404Z,100146.04
2018-03-26T07:41:19.574Z,100149.06
2018-03-26T07:42:25.834Z,100145.79
2018-03-26T07:43:37.834Z,100144.30
2018-03-26T07:44:45.204Z,100147.86
2018-03-26T07:45:51.404Z,100149.01
2018-03-26T07:46:57.631Z,100147.34
2018-03-26T07:48:03.917Z,100153.41
2018-03-26T07:49:15.097Z,100151.16
2018-03-26T07:50:21.294Z,100157.47
2018-03-26T07:51:27.471Z,100157.84
2018-03-26T07:52:33.949Z,100157.78
2018-03-26T07:53:40.151Z,100160.57
2018-03-26T07:54:46.390Z,100158.64
2018-03-26T07:55:52.558Z,100154.75
2018-03-26T07:56:59.040Z,100158.72
2018-03-26T07:58:09.249Z,100163.86
2018-03-26T07:59:17.786Z,100159.75
2018-03-26T08:00:24.073Z,100163.63
2018-03-26T08:01:30.292Z,100159.61
2018-03-26T08:02:36.505Z,100167.89
2018-03-26T08:03:42.916Z,100169.38
2018-03-26T08:04:49.125Z,100164.70
2018-03-26T08:05:55.303Z,100164.08
2018-03-26T08:07:01.516Z,100164.38
2018-03-26T08:08:07.599Z,100163.75
2018-03-26T08:09:14.797Z,100169.69
2018-03-26T08:10:21.007Z,100166.23
2018-03-26T08:11:27.027Z,100173.34
2018-03-26T08:12:33.431Z,100168.81
2018-03-26T08:13:40.642Z,100173.48
2018-03-26T08:14:46.837Z,100171.33
2018-03-26T08:15:53.042Z,100172.17
2018-03-26T08:16:59.327Z,100175.89
2018-03-26T08:18:05.222Z,100176.23
2018-03-26T08:19:11.462Z,100178.48
2018-03-26T08:20:18.009Z,100178.84
2018-03-26T08:21:24.167Z,100181.52
2018-03-26T08:22:30.386Z,100180.23
2018-03-26T08:23:36.570Z,100182.33
2018-03-26T08:24:47.866Z,100180.43
2018-03-26T08:25:54.093Z,100180.75
2018-03-26T08:27:00.368Z,100181.67
2018-03-26T08:28:06.905Z,100181.98
2018-03-26T08:29:13.191Z,100184.92
2018-03-26T08:30:24.076Z,100182.56
2018-03-26T08:31:30.300Z,100182.95
2018-03-26T08:32:36.538Z,100184.64
2018-03-26T08:33:42.703Z,100177.80
2018-03-26T08:34:48.933Z,100179.31
2018-03-26T08:35:55.085Z,100180.89
2018-03-26T08:37:01.287Z,100183.47
2018-03-26T08:38:07.492Z,100176.94
2018-03-26T08:39:13.640Z,100174.58
2018-03-26T08:40:25.930Z,100177.48
2018-03-26T08:41:33.851Z,100180.68
2018-03-26T08:42:40.004Z,100181.90
2018-03-26T08:43:46.365Z,100180.66
2018-03-26T08:44:52.559Z,100189.23
2018-03-26T08:45:58.911Z,100190.05
2018-03-26T08:47:06.105Z,100189.56
2018-03-26T08:48:15.774Z,100188.38
2018-03-26T08:49:21.974Z,100198.69
2018-03-26T08:50:28.201Z,100199.38
2018-03-26T08:51:39.566Z,100197.48
2018-03-26T08:52:45.777Z,100193.95
2018-03-26T08:53:54.821Z,100195.97
2018-03-26T08:55:03.064Z,100194.23
2018-03-26T08:56:09.263Z,100194.50
2018-03-26T08:57:15.538Z,100195.58
2018-03-26T08:58:21.758Z,100197.40
2018-03-26T08:59:28.029Z,100197.14
2018-03-26T09:00:36.965Z,100202.48
2018-03-26T09:01:43.200Z,100200.84
2018-03-26T09:02:56.564Z,100197.73
2018-03-26T09:04:02.726Z,100199.56
2018-03-26T09:05:14.936Z,100197.42
2018-03-26T09:06:24.030Z,100204.84
2018-03-26T09:07:33.163Z,100204.02
2018-03-26T09:08:42.477Z,100199.99
2018-03-26T09:09:48.653Z,100204.16
2018-03-26T09:10:54.838Z,100207.09
2018-03-26T09:12:00.810Z,100211.75
2018-03-26T09:13:07.292Z,100202.48
2018-03-26T09:14:18.544Z,100206.95
2018-03-26T09:15:29.570Z,100206.22
2018-03-26T09:16:36.047Z,100199.58
2018-03-26T09:17:42.325Z,100210.69
2018-03-26T09:18:51.706Z,100202.86
2018-03-26T09:19:57.893Z,100209.58
2018-03-26T09:21:04.658Z,100206.58
2018-03-26T09:22:10.683Z,100209.62
2018-03-26T09:23:17.893Z,100213.28
2018-03-26T09:24:24.066Z,100210.67
2018-03-26T09:25:30.409Z,100214.14
2018-03-26T09:26:36.709Z,100220.75
2018-03-26T09:27:42.932Z,100213.98
2018-03-26T09:28:49.162Z,100219.25
2018-03-26T09:29:55.399Z,100214.86
2018-03-26T09:31:06.609Z,100223.10
2018-03-26T09:32:12.857Z,100216.52
2018-03-26T09:33:19.058Z,100217.44
2018-03-26T09:34:30.938Z,100218.75
2018-03-26T09:35:37.141Z,100215.68
2018-03-26T09:36:43.319Z,100221.20
2018-03-26T09:37:49.527Z,100222.99
2018-03-26T09:38:55.697Z,100222.83
2018-03-26T09:40:01.924Z,100225.56
2018-03-26T09:41:07.759Z,100222.14
2018-03-26T09:42:13.887Z,100232.97
2018-03-26T09:43:26.133Z,100222.67
2018-03-26T09:44:32.356Z,100228.11
2018-03-26T09:45:38.589Z,100233.55
2018-03-26T09:46:44.784Z,100232.56
2018-03-26T09:47:51.977Z,100230.59
2018-03-26T09:48:58.884Z,100233.20
2018-03-26T09:50:04.688Z,100230.90
2018-03-26T09:51:10.904Z,100234.83
2018-03-26T09:52:22.350Z,100237.53
2018-03-26T09:53:28.595Z,100235.58
2018-03-26T09:54:34.806Z,100235.06
2018-03-26T09:55:41.012Z,100239.95
2018-03-26T09:56:47.238Z,100240.84
2018-03-26T09:57:53.509Z,100239.95
2018-03-26T09:58:59.747Z,100246.05
2018-03-26T10:00:05.872Z,100242.15
2018-03-26T10:01:18.031Z,100246.91
2018-03-26T10:02:24.277Z,100243.19
2018-03-26T10:03:30.499Z,100241.40
2018-03-26T10:04:42.107Z,100246.12
2018-03-26T10:05:50.394Z,100245.83
2018-03-26T10:06:56.606Z,100242.81
2018-03-26T10:08:03.208Z,100240.94
2018-03-26T10:09:09.488Z,100248.36
2018-03-26T10:10:15.735Z,100243.26
2018-03-26T10:11:21.918Z,100243.11
2018-03-26T10:12:28.142Z,100237.27
2018-03-26T10:13:36.378Z,100242.80
2018-03-26T10:14:42.532Z,100242.86
2018-03-26T10:15:48.695Z,100243.63
2018-03-26T10:16:54.851Z,100242.15
2018-03-26T10:18:01.361Z,100243.40
2018-03-26T10:19:07.576Z,100245.09
2018-03-26T10:20:13.815Z,100249.75
2018-03-26T10:21:22.939Z,100251.00
2018-03-26T10:22:28.874Z,100244.16
2018-03-26T10:23:35.367Z,100247.02
2018-03-26T10:24:42.741Z,100245.33
2018-03-26T10:25:53.591Z,100246.42
2018-03-26T10:26:59.837Z,100245.24
2018-03-26T10:28:05.693Z,100248.19
2018-03-26T10:29:17.561Z,100252.20
2018-03-26T10:30:27.764Z,100256.05
2018-03-26T10:31:34.000Z,100259.22
2018-03-26T10:32:40.241Z,100254.81
2018-03-26T10:33:46.661Z,100257.48
2018-03-26T10:34:52.801Z,100258.21
2018-03-26T10:35:58.946Z,100254.70
2018-03-26T10:37:04.803Z,100260.39
2018-03-26T10:38:11.031Z,100258.05
2018-03-26T10:39:17.242Z,100254.27
2018-03-26T10:40:23.459Z,100261.91
2018-03-26T10:41:36.277Z,100259.28
2018-03-26T10:42:42.559Z,100270.00
2018-03-26T10:43:50.712Z,100267.41
2018-03-26T10:44:57.035Z,100270.87
2018-03-26T10:46:02.948Z,100269.56
2018-03-26T10:47:15.166Z,100269.50
2018-03-26T10:48:21.481Z,100266.11
2018-03-26T10:49:27.773Z,100268.19
2018-03-26T10:50:34.133Z,100268.77
2018-03-26T10:51:40.904Z,100268.40
2018-03-26T10:52:47.226Z,100265.34
2018-03-26T10:53:58.851Z,100269.70
2018-03-26T10:55:04.951Z,100265.21
2018-03-26T10:56:12.325Z,100270.95
2018-03-26T10:57:18.839Z,100265.30
2018-03-26T10:58:25.058Z,100262.95
2018-03-26T10:59:32.439Z,100262.80
2018-03-26T11:00:47.907Z,100263.19
2018-03-26T11:01:54.195Z,100263.45
2018-03-26T11:03:00.405Z,100264.69
2018-03-26T11:04:06.614Z,100262.41
2018-03-26T11:05:12.410Z,100266.25
2018-03-26T11:06:18.700Z,100269.12
2018-03-26T11:07:25.302Z,100269.06
2018-03-26T11:08:31.520Z,100267.98
2018-03-26T11:09:37.496Z,100271.90
2018-03-26T11:10:46.516Z,100274.52
2018-03-26T11:11:53.172Z,100274.50
2018-03-26T11:12:59.437Z,100278.83
2018-03-26T11:14:05.670Z,100278.94
2018-03-26T11:15:11.853Z,100276.89
2018-03-26T11:16:18.098Z,100283.97
2018-03-26T11:17:24.455Z,100282.37
2018-03-26T11:18:33.775Z,100275.05
2018-03-26T11:19:40.035Z,100283.95
2018-03-26T11:20:45.955Z,100286.47
2018-03-26T11:21:52.202Z,100282.09
2018-03-26T11:22:58.180Z,100292.44
2018-03-26T11:24:04.252Z,100282.99
2018-03-26T11:25:10.485Z,100282.34
2018-03-26T11:26:16.787Z,100284.32
2018-03-26T11:27:23.044Z,100289.83
2018-03-26T11:28:29.343Z,100288.00
2018-03-26T11:29:36.668Z,100289.91
2018-03-26T11:30:42.951Z,100293.09
2018-03-26T11:31:49.272Z,100286.14
2018-03-26T11:32:55.494Z,100285.84
2018-03-26T11:34:04.793Z,100287.47
2018-03-26T11:35:11.060Z,100284.66
2018-03-26T11:36:17.306Z,100284.02
2018-03-26T11:37:28.547Z,100289.62
2018-03-26T11:38:36.799Z,100283.58
2018-03-26T11:39:43.060Z,100287.09
2018-03-26T11:40:49.282Z,100287.95
2018-03-26T11:41:55.569Z,100290.50
2018-03-26T11:43:01.794Z,100284.45
2018-03-26T11:44:08.020Z,100287.67
2018-03-26T11:45:14.287Z,100282.88
2018-03-26T11:46:20.787Z,100288.25
2018-03-26T11:47:27.005Z,100285.23
2018-03-26T11:48:40.648Z,100280.05
2018-03-26T11:49:47.066Z,100288.95
2018-03-26T11:50:53.276Z,100289.98
2018-03-26T11:51:59.533Z,100288.61
2018-03-26T11:53:05.418Z,100282.01
2018-03-26T11:54:12.649Z,100283.26
2018-03-26T11:55:18.981Z,100283.95
2018-03-26T11:56:25.713Z,100290.80
2018-03-26T11:57:32.002Z,100284.63
2018-03-26T11:58:38.265Z,100280.96
2018-03-26T11:59:44.511Z,100282.42
2018-03-26T12:00:50.883Z,100279.58
2018-03-26T12:01:56.759Z,100286.78
2018-03-26T12:03:02.986Z,100285.67
2018-03-26T12:04:09.270Z,100288.56
2018-03-26T12:05:15.509Z,100285.50
2018-03-26T12:06:22.194Z,100280.09
2018-03-26T12:07:28.465Z,100284.77
2018-03-26T12:08:34.710Z,100278.30
2018-03-26T12:09:41.827Z,100282.41
2018-03-26T12:10:48.072Z,100283.48
2018-03-26T12:11:54.313Z,100279.12
2018-03-26T12:13:00.548Z,100281.06
2018-03-26T12:14:06.510Z,100277.44
2018-03-26T12:15:12.776Z,100284.65
2018-03-26T12:16:19.444Z,100275.53
2018-03-26T12:17:28.421Z,100277.12
2018-03-26T12:18:40.258Z,100281.91
2018-03-26T12:20:01.002Z,100279.05
2018-03-26T12:21:06.344Z,100279.11
2018-03-26T12:22:11.997Z,100279.41
2018-03-26T12:23:29.235Z,100285.63
2018-03-26T12:24:46.339Z,100278.47
2018-03-26T12:25:52.268Z,100277.53
2018-03-26T12:26:58.708Z,100283.16
2018-03-26T12:28:16.084Z,100279.55
2018-03-26T12:29:36.048Z,100277.53
2018-03-26T12:30:42.022Z,100277.14
2018-03-26T12:31:55.214Z,100277.44
2018-03-26T12:33:05.816Z,100280.43
2018-03-26T12:34:23.801Z,100279.25
2018-03-26T12:35:40.848Z,100279.27
2018-03-26T12:36:46.794Z,100279.33
2018-03-26T12:37:53.302Z,100277.38
2018-03-26T12:38:59.597Z,100275.33
2018-03-26T12:40:04.903Z,100273.42
2018-03-26T12:41:10.897Z,100278.80
2018-03-26T12:42:17.139Z,100276.97
2018-03-26T12:43:23.372Z,100282.05
2018-03-26T12:44:40.402Z,100279.22
2018-03-26T12:47:28.978Z,100281.83
2018-03-26T12:48:35.230Z,100283.00
2018-03-26T12:49:41.501Z,100277.61
2018-03-26T12:50:58.771Z,100289.78
2018-03-26T12:52:21.103Z,100283.55
2018-03-26T12:53:32.249Z,100287.75
2018-03-26T12:54:43.743Z,100281.41
2018-03-26T12:55:50.688Z,100282.52
2018-03-26T12:58:52.038Z,100276.19
2018-03-26T13:00:02.598Z,100278.74